Impacts TAF Board
For situational awareness. Not to be used for flight planning purposes.
IDs:

KDTW - Detroit Metro/Wayne, MI, US

Issued at 2320 UTC 09 Dec 2022
Updated at 0153 UTC 10 Dec 2022
Potential Impact None Slight Moderate High
Time<<11/02Z 11/03Z 11/04Z 11/05Z 11/06Z 11/07Z 11/08Z 11/09Z 11/10Z 11/11Z 11/12Z 11/13Z 11/14Z
Type PRVL PRVL PRVL PRVL
VIS >6 >6 >6 >6
CIG 12 12 12 12
Cover OVC OVC OVC OVC
FltCat MVFR MVFR MVFR MVFR
WX -- -- -- --
WDir 80 80 80 80
WSpd 4 4 4 4
WGst -- -- -- --
WSHgt -- -- -- --
WSDir -- -- -- --
WSSpd -- -- -- --
Raw TAF
KDTW 092320Z 1000/1106 05010G16KT P6SM OVC022
  TEMPO 1000/1002 2SM -SNRA OVC010
  FM100300 08010G15KT P6SM OVC015
  FM101200 07009KT P6SM BKN020
  FM101800 08011KT P6SM OVC035
  FM102200 08004KT P6SM OVC012


METAR Board
Radar Display
Forecast Discussion
For situational awareness. Not to be used for flight planning purposes.